Time;durP1;ratioP1;P1;durP2;ratioP2;P2;SDS_P1;SDS_P2;PMS_P1;PMS_P2;Temp;Humidity;BMP_temperature;BMP_pressure;BME280_temperature;BME280_humidity;BME280_pressure;Samples;Min_cycle;Max_cycle;Signal;HPM_P1;HPM_P2
2021/11/19 00:02:25;;;;;;;;;;;;;;;;;;5061749;28;19932;-70
2021/11/19 00:04:52;;;;;;;;;;;;;;;;;;5068007;28;20032;-69
2021/11/19 00:07:19;;;;;;;;;;;;;;;;;;5064371;28;19933;-71
2021/11/19 00:09:46;;;;;;;;;;;;;;;;;;5066160;28;20031;-71
2021/11/19 00:12:13;;;;;;;;;;;;;;;;;;5065104;28;20030;-70
2021/11/19 00:14:40;;;;;;;;;;;;;;;;;;5070590;28;19970;-72
2021/11/19 00:17:08;;;;;;;;;;;;;;;;;;5081037;28;19974;-72
2021/11/19 00:19:35;;;;;;;;;;;;;;;;;;5084906;28;19924;-72
2021/11/19 00:22:02;;;;;;;;;;;;;;;;;;5070045;28;19932;-71
2021/11/19 00:24:29;;;;;;;;;;;;;;;;;;5064738;28;19924;-70
2021/11/19 00:26:56;;;;;;;;;;;;;;;;;;5070342;28;19990;-71
2021/11/19 00:29:23;;;;;;;;;;;;;;;;;;5073102;28;19936;-73
2021/11/19 00:31:50;;;;;;;;;;;;;;;;;;5074167;28;20391;-70
2021/11/19 00:34:17;;;;;;;;;;;;;;;;;;5074573;28;19928;-70
2021/11/19 00:36:44;;;;;;;;;;;;;;;;;;5074294;28;20019;-71
2021/11/19 00:39:11;;;;;;;;;;;;;;;;;;5070673;28;19940;-70
2021/11/19 00:41:38;;;;;;;;;;;;;;;;;;5072525;28;20409;-71
2021/11/19 00:44:05;;;;;;;;;;;;;;;;;;5071853;28;19928;-71
2021/11/19 00:46:32;;;;;;;;;;;;;;;;;;5072969;28;19980;-71
2021/11/19 00:48:59;;;;;;;;;;;;;;;;;;5069368;28;20299;-69
2021/11/19 00:51:26;;;;;;;;;;;;;;;;;;5065709;28;19924;-71
2021/11/19 00:53:53;;;;;;;;;;;;;;;;;;5067345;28;20347;-71
2021/11/19 00:56:20;;;;;;;;;;;;;;;;;;5071905;28;19975;-71
2021/11/19 00:58:47;;;;;;;;;;;;;;;;;;5062550;28;19936;-72
2021/11/19 01:01:14;;;;;;;;;;;;;;;;;;5067306;28;19947;-70
2021/11/19 01:03:41;;;;;;;;;;;;;;;;;;5069277;28;19932;-70
2021/11/19 01:06:08;;;;;;;;;;;;;;;;;;5067960;28;20327;-70
2021/11/19 01:08:35;;;;;;;;;;;;;;;;;;5069889;28;20000;-72
2021/11/19 01:11:02;;;;;;;;;;;;;;;;;;5059906;28;19932;-70
2021/11/19 01:13:29;;;;;;;;;;;;;;;;;;5068700;28;19986;-71
2021/11/19 01:15:56;;;;;;;;;;;;;;;;;;5068829;28;19924;-71
2021/11/19 01:18:24;;;;;;;;;;;;;;;;;;5068471;28;19924;-70
2021/11/19 01:20:51;;;;;;;;;;;;;;;;;;5066329;28;19959;-70
2021/11/19 01:23:18;;;;;;;;;;;;;;;;;;5069020;28;20094;-70
2021/11/19 01:25:45;;;;;;;;;;;;;;;;;;5069153;28;19928;-70
2021/11/19 01:28:12;;;;;;;;;;;;;;;;;;5070538;28;19924;-69
2021/11/19 01:30:39;;;;;;;;;;;;;;;;;;5065646;28;19978;-70
2021/11/19 01:33:06;;;;;;;;;;;;;;;;;;5071117;28;20384;-71
2021/11/19 01:35:33;;;;;;;;;;;;;;;;;;5070466;28;20009;-71
2021/11/19 01:38:00;;;;;;;;;;;;;;;;;;5074294;28;19954;-73
2021/11/19 01:40:27;;;;;;;;;;;;;;;;;;5068313;28;19955;-71
2021/11/19 01:42:54;;;;;;;;;;;;;;;;;;5067926;28;19947;-71
2021/11/19 01:45:21;;;;;;;;;;;;;;;;;;5068473;28;20019;-71
2021/11/19 01:47:50;;;;;;;;;;;;;;;;;;5060368;28;20381;-69
2021/11/19 01:50:17;;;;;;;;;;;;;;;;;;5057748;28;19932;-71
2021/11/19 01:52:44;;;;;;;;;;;;;;;;;;5072030;28;20399;-70
2021/11/19 01:55:15;;;;;;;;;;;;;;;;;;5072997;28;20498;-71
2021/11/19 01:57:42;;;;;;;;;;;;;;;;;;5081083;28;19932;-71
2021/11/19 02:00:08;;;;;;;;;;;;;;;;;;5067109;28;19924;-70
2021/11/19 02:02:37;;;;;;;;;;;;;;;;;;5072176;28;19924;-69
2021/11/19 02:05:04;;;;;;;;;;;;;;;;;;5072035;28;19932;-70
2021/11/19 02:07:31;;;;;;;;;;;;;;;;;;5071868;28;20894;-72
2021/11/19 02:09:58;;;;;;;;;;;;;;;;;;5072835;28;20288;-71
2021/11/19 02:12:25;;;;;;;;;;;;;;;;;;5080730;28;19930;-70
2021/11/19 02:14:52;;;;;;;;;;;;;;;;;;5074909;28;19930;-72
2021/11/19 02:17:19;;;;;;;;;;;;;;;;;;5068847;28;19931;-71
2021/11/19 02:19:46;;;;;;;;;;;;;;;;;;5067316;28;20299;-69
2021/11/19 02:22:13;;;;;;;;;;;;;;;;;;5068847;28;20003;-71
2021/11/19 02:24:40;;;;;;;;;;;;;;;;;;5070881;28;19931;-70
2021/11/19 02:27:07;;;;;;;;;;;;;;;;;;5067445;28;19924;-70
2021/11/19 02:29:34;;;;;;;;;;;;;;;;;;5065204;28;19933;-70
2021/11/19 02:32:01;;;;;;;;;;;;;;;;;;5070750;28;19929;-73
2021/11/19 02:34:28;;;;;;;;;;;;;;;;;;5067818;28;19947;-70
2021/11/19 02:36:55;;;;;;;;;;;;;;;;;;5062432;28;19929;-71
2021/11/19 02:39:22;;;;;;;;;;;;;;;;;;5061348;28;19935;-71
2021/11/19 02:41:49;;;;;;;;;;;;;;;;;;5067020;28;19968;-70
2021/11/19 02:44:16;;;;;;;;;;;;;;;;;;5071081;28;19978;-70
2021/11/19 02:46:43;;;;;;;;;;;;;;;;;;5067101;28;19931;-70
2021/11/19 02:49:10;;;;;;;;;;;;;;;;;;5065097;28;19932;-70
2021/11/19 02:51:37;;;;;;;;;;;;;;;;;;5067707;28;19933;-71
2021/11/19 02:54:04;;;;;;;;;;;;;;;;;;5069213;28;20319;-69
2021/11/19 02:56:30;;;;;;;;;;;;;;;;;;5069235;28;20394;-70
2021/11/19 02:58:57;;;;;;;;;;;;;;;;;;5067734;28;19924;-70
2021/11/19 03:01:24;;;;;;;;;;;;;;;;;;5068420;28;19928;-70
2021/11/19 03:03:51;;;;;;;;;;;;;;;;;;5066289;28;19958;-69
2021/11/19 03:06:18;;;;;;;;;;;;;;;;;;5067640;28;19980;-70
2021/11/19 03:08:45;;;;;;;;;;;;;;;;;;5063777;28;19925;-69
2021/11/19 03:11:12;;;;;;;;;;;;;;;;;;5068028;28;19928;-70
2021/11/19 03:13:39;;;;;;;;;;;;;;;;;;5068484;28;19924;-69
2021/11/19 03:16:06;;;;;;;;;;;;;;;;;;5063424;28;20019;-69
2021/11/19 03:18:33;;;;;;;;;;;;;;;;;;5065808;28;19925;-70
2021/11/19 03:21:00;;;;;;;;;;;;;;;;;;5066227;28;19924;-70
2021/11/19 03:23:27;;;;;;;;;;;;;;;;;;5069197;28;19928;-70
2021/11/19 03:25:54;;;;;;;;;;;;;;;;;;5074018;28;20383;-69
2021/11/19 03:28:21;;;;;;;;;;;;;;;;;;5072006;28;19934;-69
2021/11/19 03:30:48;;;;;;;;;;;;;;;;;;5075699;28;19928;-70
2021/11/19 03:33:17;;;;;;;;;;;;;;;;;;5067823;28;20019;-69
2021/11/19 03:35:44;;;;;;;;;;;;;;;;;;5065035;28;20526;-70
2021/11/19 03:38:11;;;;;;;;;;;;;;;;;;5062734;28;20312;-69
2021/11/19 03:40:38;;;;;;;;;;;;;;;;;;5067280;28;19932;-68
2021/11/19 03:43:05;;;;;;;;;;;;;;;;;;5064689;28;19928;-69
2021/11/19 03:45:32;;;;;;;;;;;;;;;;;;5064760;28;19924;-70
2021/11/19 03:47:59;;;;;;;;;;;;;;;;;;5058867;28;19932;-70
2021/11/19 03:50:26;;;;;;;;;;;;;;;;;;5065762;28;20011;-70
2021/11/19 03:52:53;;;;;;;;;;;;;;;;;;5057687;28;20333;-69
2021/11/19 03:55:20;;;;;;;;;;;;;;;;;;5064684;28;19931;-70
2021/11/19 03:57:48;;;;;;;;;;;;;;;;;;5069318;28;20204;-72
2021/11/19 04:00:15;;;;;;;;;;;;;;;;;;5069299;28;19947;-70
2021/11/19 04:02:42;;;;;;;;;;;;;;;;;;5067817;28;19931;-70
2021/11/19 04:05:09;;;;;;;;;;;;;;;;;;5061118;28;19929;-70
2021/11/19 04:07:36;;;;;;;;;;;;;;;;;;5058663;28;19925;-71
2021/11/19 04:10:03;;;;;;;;;;;;;;;;;;5068179;28;19925;-70
2021/11/19 04:12:30;;;;;;;;;;;;;;;;;;5063552;28;19931;-69
2021/11/19 04:14:57;;;;;;;;;;;;;;;;;;5060035;28;20381;-69
2021/11/19 04:17:24;;;;;;;;;;;;;;;;;;5062727;28;20027;-69
2021/11/19 04:19:51;;;;;;;;;;;;;;;;;;5059711;28;19935;-68
2021/11/19 04:22:18;;;;;;;;;;;;;;;;;;5062861;28;19931;-69
2021/11/19 04:24:45;;;;;;;;;;;;;;;;;;5060960;28;20289;-70
2021/11/19 04:27:12;;;;;;;;;;;;;;;;;;5076152;22;20575;-66
2021/11/19 04:29:39;;;;;;;;;;;;;;;;;;5060927;28;19933;-65
2021/11/19 04:32:08;;;;;;;;;;;;;;;;;;5065357;28;20433;-65
2021/11/19 04:34:35;;;;;;;;;;;;;;;;;;5067802;28;20380;-66
2021/11/19 04:37:02;;;;;;;;;;;;;;;;;;5056379;28;19931;-65
2021/11/19 04:39:29;;;;;;;;;;;;;;;;;;5045609;28;19929;-65
2021/11/19 04:41:56;;;;;;;;;;;;;;;;;;5043961;28;19937;-65
2021/11/19 04:44:23;;;;;;;;;;;;;;;;;;5046797;28;19947;-66
2021/11/19 04:46:50;;;;;;;;;;;;;;;;;;5045870;28;19936;-65
2021/11/19 04:49:17;;;;;;;;;;;;;;;;;;5049664;28;19931;-65
2021/11/19 04:51:45;;;;;;;;;;;;;;;;;;5044016;28;19932;-66
2021/11/19 04:54:12;;;;;;;;;;;;;;;;;;5041809;28;19956;-65
2021/11/19 04:56:39;;;;;;;;;;;;;;;;;;5039560;28;19955;-66
2021/11/19 04:59:06;;;;;;;;;;;;;;;;;;5038364;28;20260;-66
2021/11/19 05:01:33;;;;;;;;;;;;;;;;;;5047851;28;19929;-66
2021/11/19 05:04:00;;;;;;;;;;;;;;;;;;5048616;28;19931;-66
2021/11/19 05:06:27;;;;;;;;;;;;;;;;;;5041606;28;20304;-64
2021/11/19 05:08:54;;;;;;;;;;;;;;;;;;5046072;28;19925;-65
2021/11/19 05:11:21;;;;;;;;;;;;;;;;;;5047045;28;19925;-65
2021/11/19 05:13:48;;;;;;;;;;;;;;;;;;5039974;28;19932;-67
2021/11/19 05:16:15;;;;;;;;;;;;;;;;;;5043496;28;19924;-65
2021/11/19 05:18:42;;;;;;;;;;;;;;;;;;5044964;28;20387;-65
2021/11/19 05:21:08;;;;;;;;;;;;;;;;;;5045806;28;19933;-65
2021/11/19 05:23:35;;;;;;;;;;;;;;;;;;5045743;28;19925;-64
2021/11/19 05:26:02;;;;;;;;;;;;;;;;;;5044854;28;19924;-64
2021/11/19 05:28:29;;;;;;;;;;;;;;;;;;5041489;28;20007;-65
2021/11/19 05:30:56;;;;;;;;;;;;;;;;;;5050045;28;19925;-64
2021/11/19 05:33:23;;;;;;;;;;;;;;;;;;5048182;28;19948;-65
2021/11/19 05:35:50;;;;;;;;;;;;;;;;;;5036282;28;20363;-64
2021/11/19 05:38:17;;;;;;;;;;;;;;;;;;5033893;28;20404;-65
2021/11/19 05:40:44;;;;;;;;;;;;;;;;;;5036652;28;19925;-65
2021/11/19 05:43:11;;;;;;;;;;;;;;;;;;5037930;28;19939;-65
2021/11/19 05:45:38;;;;;;;;;;;;;;;;;;5042547;28;19929;-65
2021/11/19 05:48:06;;;;;;;;;;;;;;;;;;5053624;28;19925;-68
2021/11/19 05:50:33;;;;;;;;;;;;;;;;;;5051329;28;19925;-65
2021/11/19 05:53:02;;;;;;;;;;;;;;;;;;5044233;28;19925;-68
2021/11/19 05:55:29;;;;;;;;;;;;;;;;;;5049481;28;19974;-65
2021/11/19 05:57:56;;;;;;;;;;;;;;;;;;5049750;28;19925;-66
2021/11/19 06:00:23;;;;;;;;;;;;;;;;;;5034500;28;19933;-65
2021/11/19 06:02:50;;;;;;;;;;;;;;;;;;5031095;28;19925;-66
2021/11/19 06:05:17;;;;;;;;;;;;;;;;;;5043427;28;20304;-66
2021/11/19 06:07:44;;;;;;;;;;;;;;;;;;5042599;28;19931;-66
2021/11/19 06:10:11;;;;;;;;;;;;;;;;;;5054926;28;19932;-66
2021/11/19 06:12:38;;;;;;;;;;;;;;;;;;5039277;28;20007;-66
2021/11/19 06:15:05;;;;;;;;;;;;;;;;;;5052989;28;19931;-65
2021/11/19 06:17:32;;;;;;;;;;;;;;;;;;5042378;28;19929;-66
2021/11/19 06:19:59;;;;;;;;;;;;;;;;;;5048585;28;19941;-65
2021/11/19 06:22:26;;;;;;;;;;;;;;;;;;5040834;28;20391;-66
2021/11/19 06:24:53;;;;;;;;;;;;;;;;;;5042608;28;19925;-66
2021/11/19 06:27:22;;;;;;;;;;;;;;;;;;5042333;28;19925;-65
2021/11/19 06:29:49;;;;;;;;;;;;;;;;;;5035130;28;20335;-65
2021/11/19 06:32:16;;;;;;;;;;;;;;;;;;5036591;28;19925;-66
2021/11/19 06:34:43;;;;;;;;;;;;;;;;;;5041012;28;19932;-65
2021/11/19 06:37:10;;;;;;;;;;;;;;;;;;5035306;28;19925;-66
2021/11/19 06:39:41;;;;;;;;;;;;;;;;;;5041342;28;19925;-64
2021/11/19 06:42:08;;;;;;;;;;;;;;;;;;5030281;28;20015;-65
2021/11/19 06:44:34;;;;;;;;;;;;;;;;;;5031526;28;19931;-65
2021/11/19 06:47:02;;;;;;;;;;;;;;;;;;5035754;28;20034;-68
2021/11/19 06:49:28;;;;;;;;;;;;;;;;;;5038934;28;19929;-66
2021/11/19 06:51:55;;;;;;;;;;;;;;;;;;5031083;28;20296;-67
2021/11/19 06:54:22;;;;;;;;;;;;;;;;;;5039135;28;19925;-67
2021/11/19 06:56:50;;;;;;;;;;;;;;;;;;5036625;28;19943;-66
2021/11/19 06:59:17;;;;;;;;;;;;;;;;;;5021589;28;19943;-66
2021/11/19 07:01:44;;;;;;;;;;;;;;;;;;5018291;28;20065;-66
2021/11/19 07:04:11;;;;;;;;;;;;;;;;;;5018797;28;19929;-67
2021/11/19 07:06:38;;;;;;;;;;;;;;;;;;5019785;28;21701;-67
2021/11/19 07:09:05;;;;;;;;;;;;;;;;;;5015147;28;19929;-67
2021/11/19 07:11:32;;;;;;;;;;;;;;;;;;5021456;28;19929;-67
2021/11/19 07:13:59;;;;;;;;;;;;;;;;;;5019336;28;19929;-67
2021/11/19 07:16:26;;;;;;;;;;;;;;;;;;5022222;28;20407;-67
2021/11/19 07:18:53;;;;;;;;;;;;;;;;;;5023441;28;19933;-66
2021/11/19 07:21:20;;;;;;;;;;;;;;;;;;5017769;28;20011;-65
2021/11/19 07:23:47;;;;;;;;;;;;;;;;;;5018035;28;19932;-65
2021/11/19 07:26:14;;;;;;;;;;;;;;;;;;5025938;28;20443;-65
2021/11/19 07:28:41;;;;;;;;;;;;;;;;;;5020995;28;19929;-67
2021/11/19 07:31:08;;;;;;;;;;;;;;;;;;5021551;28;19924;-66
2021/11/19 07:33:36;;;;;;;;;;;;;;;;;;5020255;28;20415;-65
2021/11/19 07:36:04;;;;;;;;;;;;;;;;;;5023319;28;19943;-65
2021/11/19 07:38:31;;;;;;;;;;;;;;;;;;5021023;28;19940;-65
2021/11/19 07:40:58;;;;;;;;;;;;;;;;;;5022895;28;19935;-65
2021/11/19 07:43:27;;;;;;;;;;;;;;;;;;5017711;28;19929;-65
2021/11/19 07:45:54;;;;;;;;;;;;;;;;;;5038467;28;19971;-66
2021/11/19 07:48:21;;;;;;;;;;;;;;;;;;5022610;28;20389;-65
2021/11/19 07:50:48;;;;;;;;;;;;;;;;;;5021925;28;20114;-65
2021/11/19 07:53:16;;;;;;;;;;;;;;;;;;5027655;28;19934;-66
2021/11/19 07:55:43;;;;;;;;;;;;;;;;;;5041100;28;19924;-65
2021/11/19 07:58:10;;;;;;;;;;;;;;;;;;5042401;28;19948;-65
2021/11/19 08:00:37;;;;;;;;;;;;;;;;;;5041339;28;20380;-65
2021/11/19 08:03:04;;;;;;;;;;;;;;;;;;5041193;28;19925;-65
2021/11/19 08:05:31;;;;;;;;;;;;;;;;;;5046610;28;20351;-66
2021/11/19 08:07:58;;;;;;;;;;;;;;;;;;5043230;28;19933;-66
2021/11/19 08:10:25;;;;;;;;;;;;;;;;;;5040630;28;19925;-65
2021/11/19 08:12:52;;;;;;;;;;;;;;;;;;5047607;28;19929;-65
2021/11/19 08:15:19;;;;;;;;;;;;;;;;;;5045506;28;19928;-66
2021/11/19 08:17:46;;;;;;;;;;;;;;;;;;5038445;28;19924;-65
2021/11/19 08:20:13;;;;;;;;;;;;;;;;;;5039860;28;19925;-65
2021/11/19 08:22:40;;;;;;;;;;;;;;;;;;5038780;28;19951;-65
2021/11/19 08:25:06;;;;;;;;;;;;;;;;;;5041425;28;19932;-65
2021/11/19 08:27:33;;;;;;;;;;;;;;;;;;5044004;28;19925;-66
2021/11/19 08:30:00;;;;;;;;;;;;;;;;;;5041306;28;20039;-65
2021/11/19 08:32:28;;;;;;;;;;;;;;;;;;5042953;28;19935;-65
2021/11/19 08:34:54;;;;;;;;;;;;;;;;;;5044928;28;19932;-65
2021/11/19 08:37:21;;;;;;;;;;;;;;;;;;5041803;28;19926;-66
2021/11/19 08:39:48;;;;;;;;;;;;;;;;;;5038075;28;19931;-66
2021/11/19 08:42:15;;;;;;;;;;;;;;;;;;5042171;28;20032;-65
2021/11/19 08:44:42;;;;;;;;;;;;;;;;;;5036600;28;19925;-66
2021/11/19 08:47:09;;;;;;;;;;;;;;;;;;5037162;28;19933;-66
2021/11/19 08:49:36;;;;;;;;;;;;;;;;;;5043363;28;19929;-64
2021/11/19 08:52:03;;;;;;;;;;;;;;;;;;5043967;28;20398;-66
2021/11/19 08:54:30;;;;;;;;;;;;;;;;;;5043236;28;19925;-66
2021/11/19 08:56:57;;;;;;;;;;;;;;;;;;5045543;28;19962;-65
2021/11/19 08:59:24;;;;;;;;;;;;;;;;;;5039777;28;19925;-66
2021/11/19 09:01:51;;;;;;;;;;;;;;;;;;5039615;28;20066;-63
2021/11/19 09:04:18;;;;;;;;;;;;;;;;;;5039805;28;20308;-60
2021/11/19 09:06:45;;;;;;;;;;;;;;;;;;5048378;28;19924;-60
2021/11/19 09:09:12;;;;;;;;;;;;;;;;;;5045823;28;19925;-62
2021/11/19 09:11:39;;;;;;;;;;;;;;;;;;5043489;28;19929;-63
2021/11/19 09:14:06;;;;;;;;;;;;;;;;;;5047028;28;19932;-66
2021/11/19 09:16:34;;;;;;;;;;;;;;;;;;5041158;28;19933;-61
2021/11/19 09:19:01;;;;;;;;;;;;;;;;;;5038671;28;19933;-62
2021/11/19 09:21:28;;;;;;;;;;;;;;;;;;5024924;28;19929;-65
2021/11/19 09:23:56;;;;;;;;;;;;;;;;;;5042947;28;19924;-60
2021/11/19 09:26:23;;;;;;;;;;;;;;;;;;5039378;28;19932;-65
2021/11/19 09:28:50;;;;;;;;;;;;;;;;;;5034125;28;20146;-62
2021/11/19 09:31:18;;;;;;;;;;;;;;;;;;5033942;28;19931;-62
2021/11/19 09:33:45;;;;;;;;;;;;;;;;;;5025159;28;19929;-64
2021/11/19 09:36:12;;;;;;;;;;;;;;;;;;5020212;28;19944;-66
2021/11/19 09:38:39;;;;;;;;;;;;;;;;;;5033544;28;19929;-62
2021/11/19 09:41:06;;;;;;;;;;;;;;;;;;5041398;28;19932;-58
2021/11/19 09:43:33;;;;;;;;;;;;;;;;;;5041887;28;20332;-61
2021/11/19 09:46:00;;;;;;;;;;;;;;;;;;5041908;28;19929;-62
2021/11/19 09:48:26;;;;;;;;;;;;;;;;;;5034923;28;20603;-62
2021/11/19 09:50:53;;;;;;;;;;;;;;;;;;5040350;28;20277;-62
2021/11/19 09:53:20;;;;;;;;;;;;;;;;;;5045483;28;19925;-62
2021/11/19 09:55:47;;;;;;;;;;;;;;;;;;5040635;28;19987;-61
2021/11/19 09:58:14;;;;;;;;;;;;;;;;;;5031834;28;19925;-62
2021/11/19 10:00:41;;;;;;;;;;;;;;;;;;5042929;28;19933;-62
2021/11/19 10:03:08;;;;;;;;;;;;;;;;;;5043333;28;19944;-62
2021/11/19 10:05:36;;;;;;;;;;;;;;;;;;5045301;28;19925;-62
2021/11/19 10:08:03;;;;;;;;;;;;;;;;;;5040152;28;19932;-63
2021/11/19 10:10:30;;;;;;;;;;;;;;;;;;5040600;28;19925;-62
2021/11/19 10:12:57;;;;;;;;;;;;;;;;;;5034215;28;19925;-62
2021/11/19 10:15:23;;;;;;;;;;;;;;;;;;5039230;28;19932;-62
2021/11/19 10:17:51;;;;;;;;;;;;;;;;;;5045609;28;19928;-64
2021/11/19 10:20:18;;;;;;;;;;;;;;;;;;5040191;28;19932;-60
2021/11/19 10:22:46;;;;;;;;;;;;;;;;;;5042968;28;20296;-63
2021/11/19 10:25:13;;;;;;;;;;;;;;;;;;5030719;28;19929;-62
2021/11/19 10:27:40;;;;;;;;;;;;;;;;;;5071657;22;19924;-64
2021/11/19 10:30:07;;;;;;;;;;;;;;;;;;5084626;28;19924;-64
2021/11/19 10:32:34;;;;;;;;;;;;;;;;;;5080812;28;19935;-65
2021/11/19 10:35:01;;;;;;;;;;;;;;;;;;5086889;28;19924;-64
2021/11/19 10:37:28;;;;;;;;;;;;;;;;;;5080807;28;19925;-64
2021/11/19 10:39:59;;;;;;;;;;;;;;;;;;5078686;28;20024;-64
2021/11/19 10:42:26;;;;;;;;;;;;;;;;;;5080256;28;19932;-65
2021/11/19 10:44:53;;;;;;;;;;;;;;;;;;5084995;28;20008;-65
2021/11/19 10:47:20;;;;;;;;;;;;;;;;;;5085831;28;19932;-64
2021/11/19 10:49:47;;;;;;;;;;;;;;;;;;5084532;28;20291;-64
2021/11/19 10:52:14;;;;;;;;;;;;;;;;;;5084212;28;19931;-64
2021/11/19 10:54:41;;;;;;;;;;;;;;;;;;5082174;28;19931;-64
2021/11/19 10:57:08;;;;;;;;;;;;;;;;;;5077948;28;19931;-64
2021/11/19 10:59:36;;;;;;;;;;;;;;;;;;5080549;28;19932;-66
2021/11/19 11:02:03;;;;;;;;;;;;;;;;;;5081977;28;20019;-65
2021/11/19 11:04:30;;;;;;;;;;;;;;;;;;5083053;28;19924;-65
2021/11/19 11:06:57;;;;;;;;;;;;;;;;;;5081728;28;20327;-65
2021/11/19 11:09:24;;;;;;;;;;;;;;;;;;5079002;28;19924;-65
2021/11/19 11:11:51;;;;;;;;;;;;;;;;;;5080698;28;19939;-65
2021/11/19 11:14:18;;;;;;;;;;;;;;;;;;5079209;28;19924;-65
2021/11/19 11:16:45;;;;;;;;;;;;;;;;;;5080704;28;19924;-65
2021/11/19 11:19:12;;;;;;;;;;;;;;;;;;5084112;28;19946;-65
2021/11/19 11:21:39;;;;;;;;;;;;;;;;;;5083568;28;19927;-65
2021/11/19 11:24:07;;;;;;;;;;;;;;;;;;5084267;28;19947;-65
2021/11/19 11:26:34;;;;;;;;;;;;;;;;;;5083118;28;20031;-65
2021/11/19 11:29:01;;;;;;;;;;;;;;;;;;5075531;28;19924;-65
2021/11/19 11:31:28;;;;;;;;;;;;;;;;;;5077563;28;20380;-65
2021/11/19 11:33:55;;;;;;;;;;;;;;;;;;5081799;28;20351;-65
2021/11/19 11:36:22;;;;;;;;;;;;;;;;;;5086349;28;19930;-65
2021/11/19 11:38:49;;;;;;;;;;;;;;;;;;5083497;28;20026;-65
2021/11/19 11:41:16;;;;;;;;;;;;;;;;;;5077933;28;19929;-65
2021/11/19 11:43:43;;;;;;;;;;;;;;;;;;5080305;28;19946;-65
2021/11/19 11:46:09;;;;;;;;;;;;;;;;;;5075718;28;20303;-65
2021/11/19 11:48:36;;;;;;;;;;;;;;;;;;5075145;28;19946;-65
2021/11/19 11:51:03;;;;;;;;;;;;;;;;;;5085751;28;19938;-65
2021/11/19 11:53:33;;;;;;;;;;;;;;;;;;5084232;28;19925;-65
2021/11/19 11:56:00;;;;;;;;;;;;;;;;;;5077966;28;19924;-65
2021/11/19 11:58:27;;;;;;;;;;;;;;;;;;5083195;28;19936;-65
2021/11/19 12:00:54;;;;;;;;;;;;;;;;;;5081112;28;19932;-68
2021/11/19 12:03:21;;;;;;;;;;;;;;;;;;5082359;28;19929;-65
2021/11/19 12:05:49;;;;;;;;;;;;;;;;;;5086145;28;19924;-67
2021/11/19 12:08:16;;;;;;;;;;;;;;;;;;5079956;28;20300;-66
2021/11/19 12:10:43;;;;;;;;;;;;;;;;;;5081194;28;20015;-65
2021/11/19 12:13:10;;;;;;;;;;;;;;;;;;5082396;28;19924;-65
2021/11/19 12:15:37;;;;;;;;;;;;;;;;;;5084771;28;19930;-65
2021/11/19 12:18:05;;;;;;;;;;;;;;;;;;5080595;28;19924;-65
2021/11/19 12:20:32;;;;;;;;;;;;;;;;;;5084115;28;20326;-65
2021/11/19 12:22:59;;;;;;;;;;;;;;;;;;5084740;28;19987;-65
2021/11/19 12:25:26;;;;;;;;;;;;;;;;;;5086417;28;19936;-65
2021/11/19 12:27:53;;;;;;;;;;;;;;;;;;5084494;28;19947;-65
2021/11/19 12:30:20;;;;;;;;;;;;;;;;;;5081272;28;20387;-66
2021/11/19 12:32:47;;;;;;;;;;;;;;;;;;5086367;28;20304;-65
2021/11/19 12:35:14;;;;;;;;;;;;;;;;;;5084134;28;20409;-65
2021/11/19 12:37:41;;;;;;;;;;;;;;;;;;5084223;28;19939;-65
2021/11/19 12:40:08;;;;;;;;;;;;;;;;;;5088855;28;19931;-65
2021/11/19 12:42:35;;;;;;;;;;;;;;;;;;5085114;28;19932;-66
2021/11/19 12:45:02;;;;;;;;;;;;;;;;;;5081512;28;20015;-65
2021/11/19 12:47:29;;;;;;;;;;;;;;;;;;5082717;28;20376;-65
2021/11/19 12:49:56;;;;;;;;;;;;;;;;;;5089035;28;19925;-65
2021/11/19 12:52:23;;;;;;;;;;;;;;;;;;5084937;28;19929;-65
2021/11/19 12:54:50;;;;;;;;;;;;;;;;;;5086610;28;19931;-66
2021/11/19 12:57:17;;;;;;;;;;;;;;;;;;5084299;28;19924;-65
2021/11/19 12:59:44;;;;;;;;;;;;;;;;;;5086477;28;19934;-65
2021/11/19 13:02:11;;;;;;;;;;;;;;;;;;5084374;28;19943;-65
2021/11/19 13:04:38;;;;;;;;;;;;;;;;;;5086084;28;19924;-65
2021/11/19 13:07:05;;;;;;;;;;;;;;;;;;5086466;28;19924;-65
2021/11/19 13:09:32;;;;;;;;;;;;;;;;;;5084730;28;19967;-65
2021/11/19 13:11:59;;;;;;;;;;;;;;;;;;5084331;28;19924;-65
2021/11/19 13:14:30;;;;;;;;;;;;;;;;;;5080982;28;19928;-65
2021/11/19 13:16:57;;;;;;;;;;;;;;;;;;5081341;28;19981;-66
2021/11/19 13:19:24;;;;;;;;;;;;;;;;;;5085066;28;19935;-66
2021/11/19 13:21:51;;;;;;;;;;;;;;;;;;5081014;28;19925;-66
2021/11/19 13:24:18;;;;;;;;;;;;;;;;;;5083011;28;19924;-65
2021/11/19 13:26:45;;;;;;;;;;;;;;;;;;5084350;28;19928;-66
2021/11/19 13:29:12;;;;;;;;;;;;;;;;;;5085595;28;19947;-65
2021/11/19 13:31:39;;;;;;;;;;;;;;;;;;5081310;28;20259;-65
2021/11/19 13:34:06;;;;;;;;;;;;;;;;;;5089577;28;19924;-65
2021/11/19 13:36:34;;;;;;;;;;;;;;;;;;5081395;28;20015;-65
2021/11/19 13:39:01;;;;;;;;;;;;;;;;;;5084226;28;19931;-65
2021/11/19 13:41:27;;;;;;;;;;;;;;;;;;5080091;28;20295;-65
2021/11/19 13:43:55;;;;;;;;;;;;;;;;;;5087345;28;19928;-65
2021/11/19 13:46:22;;;;;;;;;;;;;;;;;;5069246;28;19924;-66
2021/11/19 13:48:49;;;;;;;;;;;;;;;;;;5080999;28;19924;-65
2021/11/19 13:51:16;;;;;;;;;;;;;;;;;;5080349;28;19929;-65
2021/11/19 13:53:42;;;;;;;;;;;;;;;;;;5081765;28;19924;-65
2021/11/19 13:56:10;;;;;;;;;;;;;;;;;;5082651;28;20015;-66
2021/11/19 13:58:37;;;;;;;;;;;;;;;;;;5084276;28;19928;-66
2021/11/19 14:01:04;;;;;;;;;;;;;;;;;;5082427;28;19924;-66
2021/11/19 14:03:31;;;;;;;;;;;;;;;;;;5076658;28;19932;-66
2021/11/19 14:05:58;;;;;;;;;;;;;;;;;;5082179;28;19978;-65
2021/11/19 14:08:25;;;;;;;;;;;;;;;;;;5083275;28;19935;-65
2021/11/19 14:10:53;;;;;;;;;;;;;;;;;;5079731;28;19929;-65
2021/11/19 14:13:20;;;;;;;;;;;;;;;;;;5085961;28;19931;-65
2021/11/19 14:15:47;;;;;;;;;;;;;;;;;;5082143;28;20409;-66
2021/11/19 14:18:18;;;;;;;;;;;;;;;;;;5083504;28;20029;-65
2021/11/19 14:23:29;;;;;;;;;;;;;;;;;;5079302;28;19957;-65
2021/11/19 14:25:59;;;;;;;;;;;;;;;;;;5083021;28;19928;-66
2021/11/19 14:28:26;;;;;;;;;;;;;;;;;;5082827;28;20006;-65
2021/11/19 14:30:53;;;;;;;;;;;;;;;;;;5082762;28;19924;-65
2021/11/19 14:33:21;;;;;;;;;;;;;;;;;;5083410;28;19925;-66
2021/11/19 14:35:48;;;;;;;;;;;;;;;;;;5080967;28;19924;-66
2021/11/19 14:38:15;;;;;;;;;;;;;;;;;;5080828;28;20019;-65
2021/11/19 14:40:42;;;;;;;;;;;;;;;;;;5077453;28;19924;-65
2021/11/19 14:43:11;;;;;;;;;;;;;;;;;;5078955;28;19929;-65
2021/11/19 14:45:38;;;;;;;;;;;;;;;;;;5085591;28;19973;-66
2021/11/19 14:48:05;;;;;;;;;;;;;;;;;;5088029;28;19927;-66
2021/11/19 14:53:16;;;;;;;;;;;;;;;;;;5078718;28;19924;-66
2021/11/19 14:55:43;;;;;;;;;;;;;;;;;;5081915;28;20472;-64
2021/11/19 14:58:10;;;;;;;;;;;;;;;;;;5089280;28;19954;-64
2021/11/19 15:00:37;;;;;;;;;;;;;;;;;;5086956;28;20287;-65
2021/11/19 15:03:04;;;;;;;;;;;;;;;;;;5078710;28;20559;-64
2021/11/19 15:05:31;;;;;;;;;;;;;;;;;;5086452;28;20406;-66
2021/11/19 15:07:58;;;;;;;;;;;;;;;;;;5079131;28;20293;-65
2021/11/19 15:10:25;;;;;;;;;;;;;;;;;;5082153;28;20311;-66
2021/11/19 15:12:52;;;;;;;;;;;;;;;;;;5078514;28;20116;-66
2021/11/19 15:15:19;;;;;;;;;;;;;;;;;;5080023;28;20281;-66
2021/11/19 15:17:46;;;;;;;;;;;;;;;;;;5080000;28;20034;-66
2021/11/19 15:20:15;;;;;;;;;;;;;;;;;;5082919;28;19943;-66
2021/11/19 15:22:42;;;;;;;;;;;;;;;;;;5084381;28;19924;-66
2021/11/19 15:25:09;;;;;;;;;;;;;;;;;;5080657;28;19925;-66
2021/11/19 15:27:36;;;;;;;;;;;;;;;;;;5082072;28;19924;-64
2021/11/19 15:30:03;;;;;;;;;;;;;;;;;;5079815;28;19928;-66
2021/11/19 15:32:30;;;;;;;;;;;;;;;;;;5080336;28;19931;-65
2021/11/19 15:34:56;;;;;;;;;;;;;;;;;;5085997;28;20027;-66
2021/11/19 15:37:23;;;;;;;;;;;;;;;;;;5076489;28;19930;-65
2021/11/19 15:39:50;;;;;;;;;;;;;;;;;;5081326;28;20013;-65
2021/11/19 15:42:17;;;;;;;;;;;;;;;;;;5081505;28;19924;-66
2021/11/19 15:44:44;;;;;;;;;;;;;;;;;;5081495;28;19928;-66
2021/11/19 15:47:11;;;;;;;;;;;;;;;;;;5077966;28;19928;-66
2021/11/19 15:49:38;;;;;;;;;;;;;;;;;;5083661;28;19930;-66
2021/11/19 15:52:05;;;;;;;;;;;;;;;;;;5079693;28;19924;-66
2021/11/19 15:54:32;;;;;;;;;;;;;;;;;;5081356;28;19924;-66
2021/11/19 15:56:59;;;;;;;;;;;;;;;;;;5081894;28;19931;-66
2021/11/19 15:59:26;;;;;;;;;;;;;;;;;;5080659;28;19924;-66
2021/11/19 16:01:53;;;;;;;;;;;;;;;;;;5077586;28;19954;-66
2021/11/19 16:04:20;;;;;;;;;;;;;;;;;;5079525;28;20386;-65
2021/11/19 16:06:47;;;;;;;;;;;;;;;;;;5076635;28;19939;-66
2021/11/19 16:09:14;;;;;;;;;;;;;;;;;;5079747;28;20410;-66
2021/11/19 16:11:42;;;;;;;;;;;;;;;;;;5082062;28;20034;-65
2021/11/19 16:14:09;;;;;;;;;;;;;;;;;;5087663;28;19924;-65
2021/11/19 16:16:36;;;;;;;;;;;;;;;;;;5086288;28;19931;-65
2021/11/19 16:19:03;;;;;;;;;;;;;;;;;;5081791;28;19925;-65
2021/11/19 16:21:30;;;;;;;;;;;;;;;;;;5082105;28;19931;-65
2021/11/19 16:23:57;;;;;;;;;;;;;;;;;;5087148;28;19951;-65
2021/11/19 16:26:24;;;;;;;;;;;;;;;;;;5087110;28;19931;-65
2021/11/19 16:28:51;;;;;;;;;;;;;;;;;;5088590;28;20018;-66
2021/11/19 16:31:18;;;;;;;;;;;;;;;;;;5085855;28;19930;-66
2021/11/19 16:33:44;;;;;;;;;;;;;;;;;;5089672;28;19978;-66
2021/11/19 16:36:11;;;;;;;;;;;;;;;;;;5088363;28;20012;-64
2021/11/19 16:38:38;;;;;;;;;;;;;;;;;;5086144;28;19929;-66
2021/11/19 16:41:05;;;;;;;;;;;;;;;;;;5086890;28;20430;-65
2021/11/19 16:43:32;;;;;;;;;;;;;;;;;;5087038;28;19925;-67
2021/11/19 16:45:59;;;;;;;;;;;;;;;;;;5086148;28;19924;-67
2021/11/19 16:48:26;;;;;;;;;;;;;;;;;;5082490;28;20364;-66
2021/11/19 16:50:53;;;;;;;;;;;;;;;;;;5082572;28;19930;-67